Time;durP1;ratioP1;P1;durP2;ratioP2;P2;SDS_P1;SDS_P2;PMS_P1;PMS_P2;Temp;Humidity;BMP_temperature;BMP_pressure;BME280_temperature;BME280_humidity;BME280_pressure;Samples;Min_cycle;Max_cycle;Signal;HPM_P1;HPM_P2
2021/12/19 00:01:48;;;;;;;2.30;2.10;;;;;;;4.85;100.00;97902.50;5153085;27;20047;-61
2021/12/19 00:04:22;;;;;;;3.00;2.20;;;;;;;4.90;100.00;97891.38;5152778;27;20152;-61
2021/12/19 00:09:33;;;;;;;11.20;4.90;;;;;;;4.96;100.00;97886.41;5153117;27;20824;-61
2021/12/19 00:12:00;;;;;;;3.75;3.17;;;;;;;4.95;100.00;97885.63;5152600;27;20137;-61
2021/12/19 00:14:26;;;;;;;12.93;7.72;;;;;;;4.96;100.00;97878.25;5153019;27;20056;-60
2021/12/19 00:16:54;;;;;;;3.75;3.20;;;;;;;4.95;100.00;97871.25;5152506;27;20061;-61
2021/12/19 00:19:20;;;;;;;4.38;3.25;;;;;;;4.92;100.00;97848.31;5152756;27;20135;-60
2021/12/19 00:21:47;;;;;;;4.95;3.58;;;;;;;4.94;100.00;97858.84;5152522;27;20072;-60
2021/12/19 00:24:14;;;;;;;4.85;3.80;;;;;;;4.93;100.00;97843.66;5152334;27;20107;-60
2021/12/19 00:26:40;;;;;;;4.82;3.60;;;;;;;4.98;100.00;97848.81;5152340;27;20047;-60
2021/12/19 00:29:08;;;;;;;4.28;3.40;;;;;;;4.95;100.00;97846.81;5152454;27;20054;-60
2021/12/19 00:31:35;;;;;;;5.18;3.88;;;;;;;4.96;100.00;97837.53;5152510;27;20051;-61
2021/12/19 00:34:01;;;;;;;7.30;3.97;;;;;;;4.92;100.00;97823.09;5152341;27;20059;-60
2021/12/19 00:36:28;;;;;;;5.10;4.05;;;;;;;4.91;100.00;97816.09;5152312;27;20053;-61
2021/12/19 00:38:54;;;;;;;8.98;4.38;;;;;;;4.95;100.00;97814.22;5152296;27;20065;-61
2021/12/19 00:41:20;;;;;;;6.32;4.47;;;;;;;5.00;100.00;97808.53;5152156;27;20131;-61
2021/12/19 00:43:53;;;;;;;5.20;4.10;;;;;;;4.99;100.00;97798.78;5151979;27;20048;-60
2021/12/19 00:46:22;;;;;;;7.60;4.22;;;;;;;4.93;100.00;97801.03;5152043;27;20111;-60
2021/12/19 00:48:51;;;;;;;5.45;4.10;;;;;;;5.01;100.00;97798.44;5151809;27;20430;-60
2021/12/19 00:51:22;;;;;;;5.25;3.83;;;;;;;4.96;100.00;97791.34;5152173;27;20085;-60
2021/12/19 00:53:49;;;;;;;7.88;4.53;;;;;;;4.99;100.00;97782.47;5152079;27;20082;-60
2021/12/19 00:56:16;;;;;;;5.75;4.05;;;;;;;4.98;100.00;97769.28;5151896;27;20099;-61
2021/12/19 00:58:43;;;;;;;7.30;4.03;;;;;;;4.95;100.00;97781.63;5152053;27;20046;-60
2021/12/19 01:01:11;;;;;;;5.68;4.38;;;;;;;4.97;100.00;97770.44;5151733;27;20577;-61
2021/12/19 01:03:42;;;;;;;5.55;4.10;;;;;;;5.00;100.00;97762.34;5151882;27;20083;-60
2021/12/19 01:06:09;;;;;;;4.68;4.18;;;;;;;5.05;100.00;97729.44;5151750;27;20051;-61
2021/12/19 01:08:35;;;;;;;4.18;3.72;;;;;;;5.01;100.00;97728.59;5151839;27;20142;-61
2021/12/19 01:11:02;;;;;;;6.85;4.43;;;;;;;5.07;100.00;97716.28;5151798;27;20078;-60
2021/12/19 01:13:28;;;;;;;6.43;4.47;;;;;;;4.99;100.00;97698.28;5151272;27;20056;-61
2021/12/19 01:15:57;;;;;;;6.00;4.28;;;;;;;5.00;100.00;97691.72;5151337;27;20061;-61
2021/12/19 01:18:23;;;;;;;4.93;4.25;;;;;;;4.99;100.00;97692.84;5151606;27;20050;-60
2021/12/19 01:20:50;;;;;;;5.40;4.35;;;;;;;4.99;100.00;97690.13;5151573;27;20057;-61
2021/12/19 01:23:16;;;;;;;5.75;4.07;;;;;;;4.99;100.00;97683.94;5151506;27;20095;-60
2021/12/19 01:25:43;;;;;;;6.57;4.75;;;;;;;4.94;100.00;97699.38;5151511;27;20055;-61
2021/12/19 01:28:09;;;;;;;4.82;3.97;;;;;;;5.02;100.00;97683.22;5151492;27;20054;-61
2021/12/19 01:30:36;;;;;;;4.55;3.30;;;;;;;4.95;100.00;97675.72;5151465;27;20132;-61
2021/12/19 01:33:03;;;;;;;5.10;3.47;;;;;;;4.98;100.00;97675.00;5151368;27;20047;-60
2021/12/19 01:35:30;;;;;;;6.05;4.20;;;;;;;5.02;100.00;97666.91;5151570;27;20047;-61
2021/12/19 01:37:57;;;;;;;5.53;4.35;;;;;;;4.98;100.00;97664.13;5151268;27;20047;-60
2021/12/19 01:40:24;;;;;;;6.13;3.65;;;;;;;4.93;100.00;97665.25;5151210;27;20528;-61
2021/12/19 01:42:55;;;;;;;5.22;3.72;;;;;;;4.96;100.00;97658.28;5151068;27;20047;-62
2021/12/19 01:45:27;;;;;;;4.72;3.90;;;;;;;4.93;100.00;97648.94;5151209;27;20783;-60
2021/12/19 01:47:54;;;;;;;6.05;4.03;;;;;;;4.92;100.00;97631.06;5151480;27;20169;-61
2021/12/19 01:50:21;;;;;;;6.07;3.83;;;;;;;4.89;100.00;97634.50;5151612;27;20051;-61
2021/12/19 01:52:48;;;;;;;5.88;3.72;;;;;;;4.86;100.00;97615.44;5151540;27;20057;-61
2021/12/19 01:55:16;;;;;;;7.53;4.50;;;;;;;4.84;100.00;97621.25;5151319;27;20051;-61
2021/12/19 01:57:42;;;;;;;5.75;4.13;;;;;;;4.87;100.00;97609.66;5151637;27;20167;-60
2021/12/19 02:00:19;;;;;;;15.65;8.15;;;;;;;4.86;100.00;97615.44;5151181;27;20043;-61
2021/12/19 02:02:45;;;;;;;5.95;4.35;;;;;;;4.88;100.00;97608.50;5151172;27;20057;-60
2021/12/19 02:05:12;;;;;;;5.45;3.80;;;;;;;4.89;100.00;97593.78;5153316;27;20067;-60
2021/12/19 02:07:42;;;;;;;3.85;3.40;;;;;;;4.88;100.00;97580.56;5154652;27;20053;-61
2021/12/19 02:10:09;;;;;;;6.20;3.65;;;;;;;4.83;100.00;97587.13;5154471;27;20051;-61
2021/12/19 02:12:38;;;;;;;3.50;3.20;;;;;;;4.89;100.00;97590.28;5154152;27;20057;-60
2021/12/19 02:15:05;;;;;;;4.68;3.88;;;;;;;4.83;100.00;97584.41;5154851;27;20046;-61
2021/12/19 02:17:31;;;;;;;4.75;3.40;;;;;;;4.84;100.00;97574.31;5154499;27;20187;-60
2021/12/19 02:19:58;;;;;;;4.75;3.20;;;;;;;4.83;100.00;97578.16;5154592;27;20095;-60
2021/12/19 02:22:25;;;;;;;5.65;3.55;;;;;;;4.88;100.00;97553.44;5154322;27;20051;-61
2021/12/19 02:24:51;;;;;;;4.00;3.47;;;;;;;4.91;100.00;97549.97;5154617;27;20516;-61
2021/12/19 02:27:17;;;;;;;4.63;3.65;;;;;;;4.93;100.00;97553.09;5154030;27;20102;-60
2021/12/19 02:29:43;;;;;;;3.67;3.00;;;;;;;4.98;100.00;97546.59;5154449;27;20056;-60
2021/12/19 02:32:11;;;;;;;3.60;2.95;;;;;;;4.95;100.00;97538.00;5154207;27;20054;-60
2021/12/19 02:34:42;;;;;;;5.75;3.58;;;;;;;4.95;100.00;97546.16;5154276;27;20094;-60
2021/12/19 02:37:20;;;;;;;3.95;3.05;;;;;;;4.94;100.00;97532.97;5154023;27;20089;-61
2021/12/19 02:40:10;;;;;;;4.45;3.20;;;;;;;4.97;100.00;97529.50;5154103;27;20051;-60
2021/12/19 02:48:11;;;;;;;;;;;;;;;5.03;100.00;97536.19;5155045;27;20424;-61
2021/12/19 02:50:43;;;;;;;3.25;2.70;;;;;;;4.99;100.00;97532.63;5154055;27;19930;-60
2021/12/19 02:53:10;;;;;;;4.72;3.72;;;;;;;5.01;100.00;97526.84;5153865;27;20055;-61
2021/12/19 02:55:37;;;;;;;3.67;3.20;;;;;;;5.04;100.00;97539.69;5154022;27;20494;-60
2021/12/19 02:58:03;;;;;;;7.20;3.60;;;;;;;5.05;100.00;97525.72;5153638;27;20107;-61
2021/12/19 03:00:30;;;;;;;4.45;3.60;;;;;;;5.00;100.00;97534.22;5154025;27;20053;-61
2021/12/19 03:02:56;;;;;;;5.72;3.30;;;;;;;5.02;100.00;97510.16;5153687;27;20046;-60
2021/12/19 03:05:22;;;;;;;3.90;3.40;;;;;;;5.01;100.00;97514.03;5153718;27;20474;-60
2021/12/19 03:07:51;;;;;;;3.90;3.28;;;;;;;4.95;100.00;97520.94;5153643;27;20115;-60
2021/12/19 03:13:22;;;;;;;6.10;3.90;;;;;;;4.97;100.00;97502.34;5131883;27;20455;-61
2021/12/19 03:18:33;;;;;;;4.47;3.72;;;;;;;4.88;100.00;97488.25;5154271;27;20053;-60
2021/12/19 03:21:00;;;;;;;5.05;3.90;;;;;;;4.85;100.00;97469.97;5153605;27;20056;-60
2021/12/19 03:23:27;;;;;;;4.55;3.40;;;;;;;4.91;100.00;97452.22;5153982;27;20161;-60
2021/12/19 03:25:53;;;;;;;5.88;3.50;;;;;;;4.84;100.00;97457.56;5153429;27;20362;-61
2021/12/19 03:28:20;;;;;;;5.43;4.20;;;;;;;4.84;100.00;97455.63;5153708;27;20051;-60
2021/12/19 03:30:48;;;;;;;4.93;3.45;;;;;;;4.80;100.00;97456.72;5153392;27;20051;-61
2021/12/19 03:33:15;;;;;;;5.15;4.07;;;;;;;4.76;100.00;97434.94;5153542;27;20394;-61
2021/12/19 03:35:42;;;;;;;5.95;4.05;;;;;;;4.75;100.00;97436.13;5153681;27;20847;-60
2021/12/19 03:38:11;;;;;;;4.68;3.15;;;;;;;4.74;100.00;97439.22;5153490;27;20054;-60
2021/12/19 03:40:40;;;;;;;4.10;3.47;;;;;;;4.70;100.00;97423.66;5153300;27;20051;-60
2021/12/19 03:43:08;;;;;;;4.53;3.60;;;;;;;4.69;100.00;97424.78;5153005;27;20047;-61
2021/12/19 03:45:36;;;;;;;4.55;3.33;;;;;;;4.68;100.00;97406.94;5153189;27;20137;-61
2021/12/19 03:48:04;;;;;;;5.20;3.15;;;;;;;4.71;100.00;97411.63;5152886;27;20577;-61
2021/12/19 03:50:33;;;;;;;7.60;5.45;;;;;;;4.71;100.00;97400.00;5153378;27;20047;-60
2021/12/19 03:53:00;;;;;;;3.90;3.00;;;;;;;4.72;100.00;97413.19;5152994;27;20072;-60
2021/12/19 03:55:27;;;;;;;4.82;2.85;;;;;;;4.68;100.00;97398.78;5152947;27;20049;-60
2021/12/19 03:57:55;;;;;;;3.78;2.60;;;;;;;4.68;100.00;97389.88;5152770;27;20134;-61
2021/12/19 04:00:24;;;;;;;3.03;2.60;;;;;;;4.64;100.00;97373.56;5152697;27;20058;-60
2021/12/19 04:02:53;;;;;;;2.78;2.35;;;;;;;4.69;100.00;97375.94;5152949;27;20061;-60
2021/12/19 04:05:19;;;;;;;2.50;2.25;;;;;;;4.68;100.00;97366.22;5152886;27;20484;-61
2021/12/19 04:07:45;;;;;;;3.55;2.25;;;;;;;4.61;100.00;97359.94;5152733;27;20054;-60
2021/12/19 04:10:12;;;;;;;2.28;2.08;;;;;;;4.56;100.00;97363.75;5152642;27;20425;-60
2021/12/19 04:12:38;;;;;;;1.90;1.70;;;;;;;4.53;100.00;97366.41;5152455;27;20071;-60
2021/12/19 04:15:05;;;;;;;2.25;2.00;;;;;;;4.53;100.00;97336.56;5152458;27;20048;-60
2021/12/19 04:17:32;;;;;;;5.68;3.08;;;;;;;4.55;100.00;97335.06;5152968;27;20471;-60
2021/12/19 04:19:59;;;;;;;2.75;2.28;;;;;;;4.64;100.00;97335.56;5152531;27;20145;-60
2021/12/19 04:22:26;;;;;;;18.73;8.48;;;;;;;4.56;100.00;97327.69;5152708;27;20552;-61
2021/12/19 04:24:53;;;;;;;8.45;4.72;;;;;;;4.57;100.00;97326.56;5152468;27;20053;-60
2021/12/19 04:27:19;;;;;;;1.70;1.60;;;;;;;4.60;100.00;97336.66;5151953;27;20103;-61
2021/12/19 04:29:46;;;;;;;1.50;1.40;;;;;;;4.60;100.00;97328.50;5152338;27;20053;-61
2021/12/19 04:32:12;;;;;;;2.45;1.30;;;;;;;4.61;100.00;97332.81;5152239;27;20169;-61
2021/12/19 04:34:39;;;;;;;1.55;1.20;;;;;;;4.69;100.00;97346.06;5152556;27;20498;-60
2021/12/19 04:37:32;;;;;;;1.10;1.10;;;;;;;4.63;100.00;97347.56;5152108;27;20047;-60
2021/12/19 04:39:56;;;;;;;1.27;1.17;;;;;;;4.64;100.00;97348.34;5152407;27;20059;-60
2021/12/19 04:43:26;;;;;;;1.58;1.00;;;;;;;4.62;100.00;97358.78;5152102;27;20425;-60
2021/12/19 04:51:07;;;;;;;1.92;1.63;;;;;;;4.58;100.00;97364.16;5152085;27;19930;-60
2021/12/19 04:53:48;;;;;;;1.20;1.13;;;;;;;4.60;100.00;97351.03;5152099;27;20074;-61
2021/12/19 04:56:29;;;;;;;5.32;3.05;;;;;;;4.57;100.00;97342.84;5152327;27;20054;-60
2021/12/19 05:05:03;;;;;;;2.65;0.90;;;;;;;4.37;100.00;97328.63;5148778;27;20083;-61
2021/12/19 05:15:44;;;;;;;2.35;0.93;;;;;;;4.28;100.00;97290.16;5151778;27;20045;-61
2021/12/19 05:18:10;;;;;;;1.13;0.75;;;;;;;4.30;100.00;97298.69;5151723;27;20461;-60
2021/12/19 05:20:39;;;;;;;0.90;0.80;;;;;;;4.28;100.00;97279.31;5151623;27;20497;-61
2021/12/19 05:23:12;;;;;;;0.50;0.50;;;;;;;4.20;100.00;97289.28;5151558;27;20046;-61
2021/12/19 05:25:39;;;;;;;0.68;0.68;;;;;;;4.24;100.00;97290.88;5151440;27;20047;-60
2021/12/19 05:28:05;;;;;;;1.10;0.60;;;;;;;4.16;100.00;97288.44;5151470;27;20469;-61
2021/12/19 05:30:31;;;;;;;3.70;2.10;;;;;;;4.12;100.00;97285.69;5151609;27;20051;-60
2021/12/19 05:33:00;;;;;;;10.30;4.03;;;;;;;4.12;100.00;97284.91;5151881;27;20073;-61
2021/12/19 05:35:43;;;;;;;10.10;4.22;;;;;;;4.15;100.00;97276.81;5151381;27;20050;-61
2021/12/19 05:46:23;;;;;;;4.28;0.50;;;;;;;4.11;100.00;97246.16;5151359;27;20062;-61
2021/12/19 05:48:50;;;;;;;0.60;0.60;;;;;;;4.10;100.00;97243.81;5151124;27;20055;-60
2021/12/19 05:51:16;;;;;;;0.43;0.43;;;;;;;4.05;100.00;97239.50;5151445;27;20042;-61
2021/12/19 05:53:42;;;;;;;0.50;0.50;;;;;;;3.99;100.00;97233.59;5151017;27;20051;-61
2021/12/19 05:56:09;;;;;;;0.50;0.50;;;;;;;4.04;100.00;97237.94;5151305;27;20077;-60
2021/12/19 05:58:36;;;;;;;0.63;0.63;;;;;;;4.03;100.00;97227.44;5151315;27;20050;-60
2021/12/19 06:01:02;;;;;;;0.50;0.50;;;;;;;4.05;100.00;97242.22;5151417;27;20149;-61
2021/12/19 06:03:29;;;;;;;0.40;0.40;;;;;;;4.12;100.00;97236.09;5151022;27;20062;-60
2021/12/19 06:05:55;;;;;;;0.55;0.55;;;;;;;4.11;100.00;97243.44;5151170;27;20104;-61
2021/12/19 06:08:21;;;;;;;0.60;0.60;;;;;;;4.14;100.00;97260.94;5150952;27;20439;-60
2021/12/19 06:10:48;;;;;;;1.60;1.00;;;;;;;4.01;100.00;97253.00;5151057;27;20043;-60
2021/12/19 06:13:15;;;;;;;0.73;0.60;;;;;;;4.01;100.00;97246.81;5150538;27;20129;-61
2021/12/19 06:15:41;;;;;;;0.40;0.40;;;;;;;4.03;100.00;97263.47;5150853;27;20051;-60
2021/12/19 06:18:07;;;;;;;0.45;0.45;;;;;;;4.00;100.00;97259.59;5150908;27;20404;-60
2021/12/19 06:20:34;;;;;;;0.60;0.60;;;;;;;4.01;100.00;97255.72;5151106;27;20183;-61
2021/12/19 06:23:00;;;;;;;0.40;0.40;;;;;;;4.07;100.00;97261.63;5151080;27;20047;-60
2021/12/19 06:25:28;;;;;;;0.85;0.60;;;;;;;4.10;100.00;97260.88;5151013;27;20503;-60
2021/12/19 06:27:54;;;;;;;0.50;0.50;;;;;;;4.11;100.00;97256.22;5151339;27;20088;-60
2021/12/19 06:30:21;;;;;;;0.60;0.60;;;;;;;4.03;100.00;97271.59;5151037;27;20057;-60
2021/12/19 06:32:47;;;;;;;0.60;0.60;;;;;;;4.08;100.00;97275.94;5151042;27;20061;-60
2021/12/19 06:35:18;;;;;;;0.60;0.60;;;;;;;4.06;100.00;97276.31;5151080;27;20047;-60
2021/12/19 06:37:45;;;;;;;1.20;0.80;;;;;;;4.09;100.00;97269.38;5150746;27;20078;-60
2021/12/19 06:40:14;;;;;;;0.55;0.52;;;;;;;4.05;100.00;97271.25;5150711;27;20051;-61
2021/12/19 06:42:40;;;;;;;1.40;0.80;;;;;;;4.06;100.00;97267.38;5150360;27;20055;-61
2021/12/19 06:45:08;;;;;;;1.67;0.70;;;;;;;4.06;100.00;97270.09;5150522;27;20053;-61
2021/12/19 06:47:35;;;;;;;5.57;3.67;;;;;;;4.14;100.00;97271.78;5150318;27;20057;-61
2021/12/19 06:50:02;;;;;;;0.85;0.85;;;;;;;4.10;100.00;97266.31;5151336;27;20524;-60
2021/12/19 06:52:28;;;;;;;0.70;0.70;;;;;;;4.12;100.00;97276.78;5153888;27;20047;-61
2021/12/19 06:54:54;;;;;;;0.68;0.68;;;;;;;4.16;100.00;97264.81;5154047;27;20047;-61
2021/12/19 06:57:20;;;;;;;0.98;0.50;;;;;;;4.19;100.00;97266.00;5153751;27;20425;-60
2021/12/19 06:59:47;;;;;;;0.70;0.70;;;;;;;4.15;100.00;97267.91;5153789;27;20050;-60
2021/12/19 07:02:15;;;;;;;1.25;0.80;;;;;;;4.25;100.00;97259.09;5153949;27;20046;-61
2021/12/19 07:04:43;;;;;;;0.63;0.63;;;;;;;4.22;100.00;97263.34;5153964;27;20501;-61
2021/12/19 07:07:09;;;;;;;0.70;0.70;;;;;;;4.19;100.00;97266.78;5153640;27;20501;-61
2021/12/19 07:09:35;;;;;;;0.60;0.60;;;;;;;4.19;100.00;97258.66;5153653;27;20535;-61
2021/12/19 07:12:02;;;;;;;0.63;0.63;;;;;;;4.21;100.00;97261.00;5153764;27;20053;-61
2021/12/19 07:14:29;;;;;;;0.60;0.60;;;;;;;4.30;100.00;97253.38;5153028;27;20046;-61
2021/12/19 07:16:55;;;;;;;0.55;0.55;;;;;;;4.32;100.00;97261.91;5153654;27;20051;-61
2021/12/19 07:19:21;;;;;;;0.63;0.63;;;;;;;4.34;100.00;97256.91;5153868;27;20047;-61
2021/12/19 07:21:48;;;;;;;1.88;0.70;;;;;;;4.32;100.00;97263.84;5154142;27;20536;-61
2021/12/19 07:24:14;;;;;;;2.88;0.80;;;;;;;4.29;100.00;97272.72;5153695;27;20043;-61
2021/12/19 07:26:41;;;;;;;0.60;0.60;;;;;;;4.30;100.00;97258.00;5153746;27;20050;-61
2021/12/19 07:29:07;;;;;;;1.05;0.90;;;;;;;4.31;100.00;97265.00;5153325;27;20099;-61
2021/12/19 07:31:36;;;;;;;0.60;0.60;;;;;;;4.38;100.00;97263.13;5153449;27;20129;-61
2021/12/19 07:34:03;;;;;;;0.60;0.60;;;;;;;4.31;100.00;97265.78;5153526;27;20447;-60
2021/12/19 07:36:36;;;;;;;0.68;0.68;;;;;;;4.22;100.00;97265.28;5153237;27;20475;-61
2021/12/19 07:39:08;;;;;;;1.88;1.00;;;;;;;4.17;100.00;97260.19;5153389;27;20051;-61
2021/12/19 07:41:34;;;;;;;1.02;0.70;;;;;;;4.18;100.00;97267.16;5153222;27;20084;-61
2021/12/19 07:44:00;;;;;;;0.80;0.80;;;;;;;4.20;100.00;97257.53;5153245;27;20046;-61
2021/12/19 07:46:27;;;;;;;1.60;0.90;;;;;;;4.25;100.00;97240.13;5153017;27;20043;-61
2021/12/19 07:48:53;;;;;;;1.85;0.98;;;;;;;4.26;100.00;97249.81;5152928;27;20051;-61
2021/12/19 07:51:19;;;;;;;0.90;0.90;;;;;;;4.13;100.00;97254.72;5152956;27;20072;-61
2021/12/19 07:53:45;;;;;;;0.80;0.80;;;;;;;4.16;100.00;97255.91;5152974;27;20490;-61
2021/12/19 07:56:12;;;;;;;4.57;0.90;;;;;;;4.18;100.00;97253.59;5152692;27;20061;-61
2021/12/19 07:58:39;;;;;;;0.90;0.90;;;;;;;4.24;100.00;97271.13;5152878;27;20088;-61
2021/12/19 08:01:05;;;;;;;0.88;0.80;;;;;;;4.10;100.00;97300.75;5152440;27;20481;-60
2021/12/19 08:03:31;;;;;;;0.75;0.75;;;;;;;4.02;100.00;97313.44;5152038;27;20519;-60
2021/12/19 08:05:57;;;;;;;0.52;0.52;;;;;;;3.91;100.00;97332.28;5152667;27;20579;-61
2021/12/19 08:08:27;;;;;;;3.67;0.80;;;;;;;3.83;100.00;97373.97;5152419;27;20043;-60
2021/12/19 08:13:38;;;;;;;1.48;0.60;;;;;;;3.59;100.00;97426.63;5152133;27;20091;-60
2021/12/19 08:16:05;;;;;;;0.68;0.68;;;;;;;3.54;100.00;97446.69;5152550;27;20466;-61
2021/12/19 08:18:31;;;;;;;2.03;0.80;;;;;;;3.71;100.00;97442.72;5152426;27;20064;-60
2021/12/19 08:20:57;;;;;;;0.82;0.75;;;;;;;3.77;100.00;97462.94;5152923;27;20074;-60
2021/12/19 08:23:24;;;;;;;0.75;0.70;;;;;;;3.87;100.00;97487.91;5152636;27;20058;-60
2021/12/19 08:25:50;;;;;;;2.13;0.70;;;;;;;3.71;100.00;97504.25;5152601;27;20572;-60
2021/12/19 08:28:16;;;;;;;0.77;0.70;;;;;;;3.65;100.00;97505.69;5152547;27;20054;-61
2021/12/19 08:30:43;;;;;;;0.50;0.50;;;;;;;3.58;100.00;97498.22;5152127;27;20566;-60
2021/12/19 08:33:09;;;;;;;0.82;0.70;;;;;;;3.61;100.00;97491.31;5152286;27;20054;-60
2021/12/19 08:35:36;;;;;;;4.10;0.65;;;;;;;3.69;100.00;97484.84;5152090;27;20051;-60
2021/12/19 08:38:02;;;;;;;1.00;0.68;;;;;;;3.85;100.00;97488.25;5152115;27;20145;-60
2021/12/19 08:40:31;;;;;;;0.52;0.52;;;;;;;3.77;100.00;97511.75;5152122;27;20439;-60
2021/12/19 08:42:57;;;;;;;0.60;0.60;;;;;;;3.63;100.00;97519.63;5151609;27;20053;-60
2021/12/19 08:45:24;;;;;;;3.30;0.70;;;;;;;3.66;100.00;97515.38;5151974;27;20046;-60
2021/12/19 08:47:51;;;;;;;2.28;0.80;;;;;;;3.67;100.00;97503.41;5151754;27;20070;-60
2021/12/19 08:50:18;;;;;;;1.63;0.63;;;;;;;3.55;100.00;97498.94;5151860;27;20145;-61
2021/12/19 08:52:45;;;;;;;2.78;0.82;;;;;;;3.52;100.00;97499.66;5151994;27;20096;-61
2021/12/19 08:55:12;;;;;;;0.60;0.60;;;;;;;3.51;100.00;97479.91;5151834;27;20046;-60
2021/12/19 08:57:38;;;;;;;1.63;0.70;;;;;;;3.59;100.00;97488.94;5151533;27;20079;-60
2021/12/19 09:00:06;;;;;;;3.00;0.73;;;;;;;3.66;100.00;97491.00;5151707;27;20097;-60
2021/12/19 09:02:32;;;;;;;1.33;0.73;;;;;;;3.69;100.00;97507.31;5151599;27;20440;-61
2021/12/19 09:04:59;;;;;;;0.75;0.60;;;;;;;3.67;100.00;97511.56;5151743;27;20046;-60
2021/12/19 09:07:25;;;;;;;2.15;0.63;;;;;;;3.58;100.00;97506.34;5151868;27;20054;-60
2021/12/19 09:09:52;;;;;;;0.70;0.70;;;;;;;3.59;100.00;97501.72;5151668;27;20119;-61
2021/12/19 09:12:18;;;;;;;1.25;0.82;;;;;;;3.70;100.00;97510.84;5151583;27;20399;-60
2021/12/19 09:14:44;;;;;;;1.63;0.90;;;;;;;3.67;100.00;97520.47;5150168;27;20046;-61
2021/12/19 09:17:11;;;;;;;2.28;0.77;;;;;;;3.66;100.00;97529.72;5151569;27;20613;-61
2021/12/19 09:19:37;;;;;;;1.40;0.90;;;;;;;3.87;100.00;97521.22;5151824;27;20054;-60
2021/12/19 09:22:04;;;;;;;0.60;0.60;;;;;;;3.88;100.00;97536.31;5151464;27;20082;-60
2021/12/19 09:24:31;;;;;;;1.10;0.63;;;;;;;3.93;100.00;97549.59;5151423;27;20061;-60
2021/12/19 09:26:57;;;;;;;1.00;0.88;;;;;;;3.95;100.00;97565.50;5151620;27;20405;-61
2021/12/19 09:29:28;;;;;;;0.60;0.60;;;;;;;3.92;100.00;97553.44;5151342;27;20137;-60
2021/12/19 09:31:54;;;;;;;0.80;0.73;;;;;;;3.86;100.00;97570.34;5151193;27;20520;-61
2021/12/19 09:34:20;;;;;;;1.88;0.80;;;;;;;3.84;100.00;97578.84;5151351;27;20051;-62
2021/12/19 09:36:47;;;;;;;1.08;0.75;;;;;;;3.87;100.00;97561.88;5151278;27;20054;-62
2021/12/19 09:39:14;;;;;;;0.60;0.60;;;;;;;3.90;100.00;97549.50;5151179;27;20054;-62
2021/12/19 09:41:44;;;;;;;1.25;0.60;;;;;;;3.75;100.00;97553.91;5151541;27;20058;-61
2021/12/19 09:44:14;;;;;;;1.80;1.00;;;;;;;3.65;100.00;97549.84;5151236;27;20095;-62
2021/12/19 09:46:42;;;;;;;1.63;0.80;;;;;;;3.61;100.00;97527.31;5151434;27;20043;-62
2021/12/19 09:49:11;;;;;;;1.15;0.80;;;;;;;3.62;100.00;97509.91;5151383;27;20057;-61
2021/12/19 09:51:37;;;;;;;0.75;0.50;;;;;;;3.69;100.00;97499.19;5151197;27;20050;-61
2021/12/19 09:54:04;;;;;;;0.73;0.60;;;;;;;3.51;100.00;97515.13;5151122;27;20058;-61
2021/12/19 09:56:33;;;;;;;1.23;0.77;;;;;;;3.34;100.00;97539.16;5151204;27;20054;-61
2021/12/19 09:59:00;;;;;;;0.80;0.63;;;;;;;3.36;100.00;97545.78;5150856;27;20043;-61
2021/12/19 10:01:27;;;;;;;0.70;0.63;;;;;;;3.48;100.00;97564.59;5151002;27;20054;-61
2021/12/19 10:03:53;;;;;;;0.95;0.60;;;;;;;3.50;100.00;97573.19;5150954;27;20057;-61
2021/12/19 10:06:22;;;;;;;1.88;0.60;;;;;;;3.51;100.00;97580.16;5151262;27;20073;-61
2021/12/19 10:08:52;;;;;;;1.88;0.80;;;;;;;3.49;100.00;97595.97;5150882;27;20047;-61
2021/12/19 10:11:33;;;;;;;1.15;0.70;;;;;;;3.46;100.00;97569.59;5150927;27;20051;-60
2021/12/19 10:14:00;;;;;;;3.75;0.98;;;;;;;3.44;100.00;97571.09;5150452;27;20569;-61
2021/12/19 10:16:29;;;;;;;1.52;0.80;;;;;;;3.43;100.00;97555.97;5151308;27;20507;-60
2021/12/19 10:18:58;;;;;;;0.70;0.70;;;;;;;3.36;100.00;97536.88;5150956;27;20054;-60
2021/12/19 10:21:25;;;;;;;2.90;0.52;;;;;;;3.34;100.00;97544.59;5150840;27;20485;-61
2021/12/19 10:23:53;;;;;;;4.45;1.10;;;;;;;3.31;100.00;97546.09;5150615;27;20129;-61
2021/12/19 10:26:19;;;;;;;1.83;0.80;;;;;;;3.03;100.00;97566.00;5153447;27;20089;-60
2021/12/19 10:28:50;;;;;;;0.73;0.63;;;;;;;2.98;100.00;97550.03;5154349;27;20054;-61
2021/12/19 10:31:17;;;;;;;0.77;0.68;;;;;;;3.00;100.00;97552.38;5154265;27;20470;-60
2021/12/19 10:33:45;;;;;;;0.60;0.60;;;;;;;2.95;100.00;97552.66;5154348;27;20094;-60
2021/12/19 10:36:12;;;;;;;0.70;0.70;;;;;;;2.85;100.00;97555.94;5153876;27;20088;-60
2021/12/19 10:38:41;;;;;;;1.08;0.55;;;;;;;2.97;100.00;97567.44;5154163;27;20096;-60
2021/12/19 10:41:13;;;;;;;1.25;0.60;;;;;;;2.83;100.00;97603.09;5154326;27;20099;-60
2021/12/19 10:43:47;;;;;;;1.02;0.60;;;;;;;2.76;100.00;97621.06;5154335;27;20137;-60
2021/12/19 10:46:13;;;;;;;0.73;0.70;;;;;;;2.60;100.00;97626.50;5153891;27;20054;-61
2021/12/19 10:48:41;;;;;;;1.00;0.85;;;;;;;2.61;100.00;97617.25;5154218;27;20577;-60
2021/12/19 10:51:10;;;;;;;1.10;0.80;;;;;;;2.62;100.00;97623.44;5154192;27;20065;-60
2021/12/19 10:53:39;;;;;;;1.70;0.77;;;;;;;2.65;100.00;97623.50;5154035;27;20078;-60
2021/12/19 10:56:10;;;;;;;3.50;0.90;;;;;;;2.92;100.00;97621.03;5153744;27;20099;-61
2021/12/19 10:58:42;;;;;;;3.70;0.90;;;;;;;3.11;100.00;97610.28;5153716;27;20106;-60
2021/12/19 11:01:13;;;;;;;0.55;0.55;;;;;;;3.02;100.00;97607.75;5153738;27;20050;-60
2021/12/19 11:03:54;;;;;;;0.63;0.63;;;;;;;3.07;100.00;97614.81;5153704;27;20081;-60
2021/12/19 11:06:26;;;;;;;0.85;0.60;;;;;;;3.00;100.00;97622.75;5153810;27;20440;-60
2021/12/19 11:08:54;;;;;;;0.55;0.50;;;;;;;3.14;100.00;97600.66;5153432;27;20066;-61
2021/12/19 11:11:40;;;;;;;1.33;0.70;;;;;;;3.13;100.00;97588.25;5153917;27;20134;-60
2021/12/19 11:14:07;;;;;;;1.95;0.70;;;;;;;3.04;100.00;97534.31;5153040;27;20078;-60
2021/12/19 11:16:35;;;;;;;3.17;0.70;;;;;;;3.04;100.00;97512.66;5153540;27;20465;-61
2021/12/19 11:19:03;;;;;;;1.38;0.70;;;;;;;2.97;100.00;97469.19;5153471;27;20049;-60
2021/12/19 11:21:33;;;;;;;2.30;0.80;;;;;;;3.11;100.00;97471.41;5153446;27;20519;-60
2021/12/19 11:24:01;;;;;;;1.15;0.70;;;;;;;3.21;100.00;97427.50;5153891;27;20051;-61
2021/12/19 11:26:27;;;;;;;3.22;0.68;;;;;;;3.13;100.00;97371.63;5153658;27;20051;-60
2021/12/19 11:28:55;;;;;;;1.63;0.73;;;;;;;3.12;100.00;97389.81;5153361;27;20560;-61
2021/12/19 11:31:25;;;;;;;2.30;0.70;;;;;;;3.01;100.00;97397.72;5153453;27;20517;-60
2021/12/19 11:34:09;;;;;;;2.28;0.70;;;;;;;2.82;100.00;97411.28;5153508;27;20544;-61
2021/12/19 11:36:41;;;;;;;2.38;0.70;;;;;;;2.78;100.00;97442.88;5152505;27;20371;-60
2021/12/19 11:39:09;;;;;;;1.25;0.80;;;;;;;2.58;100.00;97453.69;5153318;27;20047;-60
2021/12/19 11:41:35;;;;;;;1.38;0.80;;;;;;;2.43;100.00;97486.19;5152980;27;20431;-60
2021/12/19 11:44:06;;;;;;;3.08;0.93;;;;;;;2.33;100.00;97503.72;5153189;27;20137;-61
2021/12/19 11:46:44;;;;;;;2.92;0.90;;;;;;;2.40;100.00;97517.44;5153033;27;20058;-60
2021/12/19 11:49:18;;;;;;;1.25;0.80;;;;;;;2.28;100.00;97517.53;5153084;27;20047;-60
2021/12/19 11:51:44;;;;;;;0.77;0.70;;;;;;;2.34;100.00;97518.84;5152972;27;20525;-60
2021/12/19 11:54:16;;;;;;;1.30;0.85;;;;;;;2.32;100.00;97523.81;5153007;27;20062;-60
2021/12/19 11:57:05;;;;;;;1.63;0.73;;;;;;;2.30;100.00;97529.56;5152908;27;20054;-60
2021/12/19 11:59:32;;;;;;;1.95;0.80;;;;;;;2.31;100.00;97550.06;5152555;27;20509;-60
2021/12/19 12:02:21;;;;;;;5.10;0.90;;;;;;;2.23;100.00;97548.34;5152842;27;20113;-60
2021/12/19 12:05:20;;;;;;;1.45;0.73;;;;;;;2.20;100.00;97576.06;5152740;27;20049;-60
2021/12/19 12:08:12;;;;;;;2.65;0.85;;;;;;;2.28;100.00;97577.81;5152536;27;20178;-61
2021/12/19 12:11:09;;;;;;;2.40;0.95;;;;;;;2.30;100.00;97575.53;5152903;27;20047;-60
2021/12/19 12:13:37;;;;;;;1.90;0.93;;;;;;;2.43;100.00;97588.94;5151691;27;20570;-60
2021/12/19 12:16:35;;;;;;;2.00;1.05;;;;;;;2.44;100.00;97591.31;5152541;27;20501;-61
2021/12/19 12:19:04;;;;;;;0.90;0.90;;;;;;;2.33;100.00;97592.97;5152759;27;20474;-60
2021/12/19 12:21:39;;;;;;;1.50;1.00;;;;;;;2.33;100.00;97585.66;5152602;27;20517;-61
2021/12/19 12:24:07;;;;;;;2.55;0.90;;;;;;;2.19;100.00;97563.66;5152367;27;20046;-60
2021/12/19 12:26:39;;;;;;;2.70;0.80;;;;;;;1.93;100.00;97533.66;5152175;27;20553;-50